Time;durP1;ratioP1;P1;durP2;ratioP2;P2;SDS_P1;SDS_P2;PMS_P1;PMS_P2;Temp;Humidity;BMP_temperature;BMP_pressure;BME280_temperature;BME280_humidity;BME280_pressure;Samples;Min_cycle;Max_cycle;Signal;HPM_P1;HPM_P2
2023/01/14 00:00:23;;;;;;;7.50;3.23;;;5.90;99.90;;;;;;5053715;28;20575;-56
2023/01/14 00:02:50;;;;;;;6.93;3.30;;;5.80;99.90;;;;;;5053598;28;20438;-55
2023/01/14 00:05:17;;;;;;;3.73;2.57;;;5.80;99.90;;;;;;5053856;28;20793;-55
2023/01/14 00:07:45;;;;;;;5.10;3.20;;;5.80;99.90;;;;;;5053644;28;20439;-55
2023/01/14 00:10:12;;;;;;;3.73;3.40;;;5.80;99.90;;;;;;5053492;28;20489;-55
2023/01/14 00:12:40;;;;;;;5.43;3.63;;;5.70;99.90;;;;;;5053860;28;20448;-56
2023/01/14 00:15:08;;;;;;;6.50;3.13;;;5.70;99.90;;;;;;5053679;28;20449;-55
2023/01/14 00:17:35;;;;;;;4.57;2.70;;;5.70;99.90;;;;;;5053683;28;20459;-55
2023/01/14 00:20:03;;;;;;;4.30;3.50;;;5.70;99.90;;;;;;5053204;28;21007;-55
2023/01/14 00:22:30;;;;;;;6.13;2.90;;;5.70;99.90;;;;;;5053728;28;20451;-55
2023/01/14 00:24:58;;;;;;;4.93;2.90;;;5.70;99.90;;;;;;5053646;28;20452;-55
2023/01/14 00:27:25;;;;;;;7.90;3.73;;;5.70;99.90;;;;;;5053295;28;20854;-56
2023/01/14 00:29:54;;;;;;;7.83;2.83;;;5.70;99.90;;;;;;5053427;28;20492;-55
2023/01/14 00:32:21;;;;;;;4.27;3.23;;;5.60;99.90;;;;;;5053056;28;20452;-55
2023/01/14 00:34:48;;;;;;;7.80;2.93;;;5.60;99.90;;;;;;5053136;28;20892;-55
2023/01/14 00:37:15;;;;;;;5.60;3.10;;;5.70;99.90;;;;;;5053187;28;20454;-55
2023/01/14 00:39:42;;;;;;;6.40;2.27;;;5.60;99.90;;;;;;5053021;28;20787;-55
2023/01/14 00:42:11;;;;;;;7.73;2.87;;;5.60;99.90;;;;;;5053144;28;20481;-55
2023/01/14 00:44:38;;;;;;;6.63;3.40;;;5.50;99.90;;;;;;5053103;28;20449;-56
2023/01/14 00:47:07;;;;;;;4.27;3.13;;;5.50;99.90;;;;;;5053672;28;20471;-55
2023/01/14 00:49:34;;;;;;;4.87;3.10;;;5.60;99.90;;;;;;5053257;28;20834;-55
2023/01/14 00:52:02;;;;;;;4.40;3.20;;;5.60;99.90;;;;;;5053051;28;20449;-55
2023/01/14 00:54:29;;;;;;;7.33;3.40;;;5.50;99.90;;;;;;5052975;28;20449;-56
2023/01/14 00:56:56;;;;;;;5.97;3.27;;;5.40;99.90;;;;;;5052977;28;20449;-56
2023/01/14 00:59:25;;;;;;;4.03;2.90;;;5.40;99.90;;;;;;5053041;28;20449;-56
2023/01/14 01:01:54;;;;;;;8.13;2.80;;;5.40;99.90;;;;;;5052725;28;20513;-56
2023/01/14 01:04:22;;;;;;;9.30;4.37;;;5.40;99.90;;;;;;5052941;28;20818;-55
2023/01/14 01:06:50;;;;;;;9.73;3.20;;;5.30;99.90;;;;;;5053246;28;20445;-55
2023/01/14 01:09:17;;;;;;;7.77;3.60;;;5.20;99.90;;;;;;5052769;28;20481;-55
2023/01/14 01:11:44;;;;;;;6.77;3.37;;;5.20;99.90;;;;;;5052952;28;20980;-55
2023/01/14 01:14:11;;;;;;;3.90;3.30;;;5.10;99.90;;;;;;5053143;28;20528;-55
2023/01/14 01:16:38;;;;;;;5.07;3.13;;;5.20;99.90;;;;;;5052833;28;20445;-56
2023/01/14 01:19:06;;;;;;;9.90;3.43;;;5.20;99.90;;;;;;5052781;28;20954;-55
2023/01/14 01:21:34;;;;;;;10.27;4.00;;;5.20;99.90;;;;;;5052657;28;20468;-56
2023/01/14 01:24:01;;;;;;;4.87;3.23;;;5.20;99.90;;;;;;5052723;28;20495;-55
2023/01/14 01:26:28;;;;;;;6.00;3.67;;;5.20;99.90;;;;;;5052526;28;20947;-55
2023/01/14 01:28:58;;;;;;;3.90;3.60;;;5.10;99.90;;;;;;5052620;28;20543;-55
2023/01/14 01:31:26;;;;;;;5.13;2.87;;;5.20;99.90;;;;;;5052865;28;20501;-55
2023/01/14 01:33:53;;;;;;;5.60;2.70;;;5.10;99.90;;;;;;5052658;28;20433;-55
2023/01/14 01:36:22;;;;;;;9.90;3.10;;;5.10;99.90;;;;;;5052770;28;20863;-55
2023/01/14 01:38:51;;;;;;;9.30;3.33;;;5.00;99.90;;;;;;5052741;28;20485;-55
2023/01/14 01:41:20;;;;;;;3.70;2.80;;;5.10;99.90;;;;;;5052461;28;20544;-55
2023/01/14 01:44:02;;;;;;;10.50;4.10;;;5.00;99.90;;;;;;5055492;28;20540;-55
2023/01/14 01:46:29;;;;;;;12.53;5.80;;;5.00;99.90;;;;;;5056115;28;20429;-55
2023/01/14 01:49:00;;;;;;;10.27;3.80;;;5.00;99.90;;;;;;5056266;28;20449;-55
2023/01/14 01:51:31;;;;;;;5.17;2.90;;;5.00;99.90;;;;;;5055892;28;20485;-55
2023/01/14 01:54:01;;;;;;;6.03;3.40;;;5.00;99.90;;;;;;5056283;28;20435;-55
2023/01/14 01:56:33;;;;;;;4.90;3.13;;;4.90;99.90;;;;;;5056321;28;20457;-55
2023/01/14 01:59:04;;;;;;;4.37;2.80;;;4.90;99.90;;;;;;5056110;28;20426;-55
2023/01/14 02:01:31;;;;;;;9.60;3.60;;;5.00;99.90;;;;;;5056166;28;20476;-55
2023/01/14 02:03:59;;;;;;;7.40;3.40;;;4.90;99.90;;;;;;5056069;28;20449;-56
2023/01/14 02:06:26;;;;;;;6.10;3.47;;;4.90;99.90;;;;;;5055768;28;20449;-55
2023/01/14 02:08:57;;;;;;;7.43;2.57;;;4.90;99.90;;;;;;5055993;28;20449;-55
2023/01/14 02:11:49;;;;;;;4.30;2.60;;;5.00;99.90;;;;;;5055634;28;21010;-56
2023/01/14 02:14:29;;;;;;;6.23;2.50;;;5.00;99.90;;;;;;5056020;28;20491;-55
2023/01/14 02:17:03;;;;;;;3.27;2.97;;;5.10;99.90;;;;;;5055535;28;20440;-56
2023/01/14 02:19:49;;;;;;;7.27;3.00;;;5.20;99.90;;;;;;5055980;28;20508;-56
2023/01/14 02:22:51;;;;;;;7.10;3.53;;;5.20;99.90;;;;;;5055652;28;20436;-56
2023/01/14 02:25:49;;;;;;;4.83;2.60;;;5.20;99.90;;;;;;5055725;28;20449;-55
2023/01/14 02:28:25;;;;;;;4.80;2.30;;;5.20;99.90;;;;;;5055681;28;20414;-55
2023/01/14 02:31:01;;;;;;;3.87;2.30;;;5.30;99.90;;;;;;5055207;28;20492;-55
2023/01/14 02:33:45;;;;;;;4.87;2.60;;;5.20;99.90;;;;;;5055347;28;20525;-55
2023/01/14 02:36:21;;;;;;;5.27;2.33;;;5.30;99.90;;;;;;5055351;28;20789;-55
2023/01/14 02:38:54;;;;;;;2.70;2.50;;;5.30;99.90;;;;;;5055246;28;20425;-56
2023/01/14 02:44:07;;;;;;;3.37;2.33;;;5.30;99.90;;;;;;5055465;28;20471;-55
2023/01/14 02:44:15;;;;;;;6.90;2.70;;;5.40;99.90;;;;;;5055185;28;20476;-55
2023/01/14 02:46:48;;;;;;;6.20;2.30;;;5.30;99.90;;;;;;5055411;28;20802;-55
2023/01/14 02:49:20;;;;;;;4.80;2.60;;;5.30;99.90;;;;;;5055356;28;20434;-55
2023/01/14 02:51:48;;;;;;;4.40;2.40;;;5.30;99.90;;;;;;5055405;28;20488;-56
2023/01/14 02:54:16;;;;;;;6.33;2.13;;;5.30;99.90;;;;;;5053784;28;20937;-56
2023/01/14 02:56:44;;;;;;;4.77;2.67;;;5.30;99.90;;;;;;5055090;28;20495;-55
2023/01/14 02:59:33;;;;;;;5.57;2.80;;;5.30;99.90;;;;;;5055104;28;20449;-55
2023/01/14 03:02:42;;;;;;;3.60;2.80;;;5.30;99.90;;;;;;5054590;28;20524;-55
2023/01/14 03:05:24;;;;;;;4.80;2.40;;;5.30;99.90;;;;;;4993558;28;20464;-55
2023/01/14 03:07:57;;;;;;;8.40;2.93;;;5.40;99.90;;;;;;5047751;28;20449;-55
2023/01/14 03:10:28;;;;;;;3.40;2.20;;;5.40;99.90;;;;;;5054556;28;20488;-55
2023/01/14 03:13:07;;;;;;;2.97;2.30;;;5.30;99.90;;;;;;5054854;28;20936;-55
2023/01/14 03:15:40;;;;;;;5.20;2.43;;;5.30;99.90;;;;;;5054784;28;20775;-55
2023/01/14 03:18:15;;;;;;;3.37;2.57;;;5.30;99.90;;;;;;5054754;28;20436;-55
2023/01/14 03:20:48;;;;;;;3.80;2.97;;;5.30;99.90;;;;;;5054395;28;20465;-55
2023/01/14 03:23:19;;;;;;;4.97;2.63;;;5.30;99.90;;;;;;5054414;28;20440;-55
2023/01/14 03:25:49;;;;;;;8.07;2.87;;;5.30;99.90;;;;;;5054345;28;20444;-55
2023/01/14 03:28:21;;;;;;;4.63;2.17;;;5.40;99.90;;;;;;5054328;28;20426;-56
2023/01/14 03:30:53;;;;;;;7.20;3.07;;;5.40;99.90;;;;;;5054116;28;20824;-56
2023/01/14 03:33:27;;;;;;;4.40;2.40;;;5.50;99.90;;;;;;5054377;28;20437;-56
2023/01/14 03:35:57;;;;;;;3.13;2.07;;;5.40;99.90;;;;;;5054170;28;20437;-55
2023/01/14 03:38:30;;;;;;;5.20;2.30;;;5.50;99.90;;;;;;5054117;28;20948;-56
2023/01/14 03:41:00;;;;;;;9.90;2.27;;;5.50;99.90;;;;;;5053899;28;20823;-55
2023/01/14 03:43:34;;;;;;;5.63;2.40;;;5.50;99.90;;;;;;5054220;28;20456;-55
2023/01/14 03:46:02;;;;;;;8.33;2.50;;;5.50;99.90;;;;;;5053895;28;20524;-55
2023/01/14 03:48:31;;;;;;;5.80;2.00;;;5.50;99.90;;;;;;5054188;28;20812;-55
2023/01/14 03:51:07;;;;;;;5.20;2.50;;;5.40;99.90;;;;;;5053587;28;20568;-55
2023/01/14 03:53:42;;;;;;;4.80;2.37;;;5.40;99.90;;;;;;5053929;28;20439;-56
2023/01/14 03:56:26;;;;;;;5.53;3.40;;;5.40;99.90;;;;;;5053825;28;20892;-55
2023/01/14 03:58:59;;;;;;;4.63;2.47;;;5.50;99.90;;;;;;5053742;28;20429;-55
2023/01/14 04:01:33;;;;;;;2.87;2.10;;;5.50;99.90;;;;;;5053408;28;20850;-55
2023/01/14 04:04:03;;;;;;;3.20;2.40;;;5.50;99.90;;;;;;5053593;28;20413;-55
2023/01/14 04:06:30;;;;;;;3.60;2.57;;;5.60;99.90;;;;;;5053613;28;20445;-55
2023/01/14 04:08:57;;;;;;;3.53;2.13;;;5.60;99.90;;;;;;5053745;28;20788;-55
2023/01/14 04:11:25;;;;;;;3.03;2.20;;;5.60;99.90;;;;;;5053426;28;20987;-55
2023/01/14 04:16:35;;;;;;;4.00;1.87;;;5.70;99.90;;;;;;5022646;28;20528;-55
2023/01/14 04:19:04;;;;;;;9.33;2.67;;;5.60;99.90;;;;;;5053410;28;20535;-55
2023/01/14 04:21:31;;;;;;;9.13;2.53;;;5.60;99.90;;;;;;5053335;28;20549;-55
2023/01/14 04:23:58;;;;;;;5.70;2.30;;;5.60;99.90;;;;;;5053433;28;20440;-55
2023/01/14 04:26:27;;;;;;;10.87;2.37;;;5.50;99.90;;;;;;5053611;28;20445;-56
2023/01/14 04:28:55;;;;;;;3.83;2.13;;;5.60;99.90;;;;;;5053223;28;20449;-55
2023/01/14 04:31:22;;;;;;;4.37;2.30;;;5.60;99.90;;;;;;5053698;28;20484;-55
2023/01/14 04:33:49;;;;;;;2.17;1.73;;;5.60;99.90;;;;;;5053355;28;20453;-55
2023/01/14 04:36:18;;;;;;;4.67;2.50;;;5.70;99.90;;;;;;5053530;28;20449;-55
2023/01/14 04:38:45;;;;;;;2.40;2.10;;;5.60;99.90;;;;;;5053436;28;20450;-55
2023/01/14 04:42:26;;;;;;;2.77;2.20;;;5.60;99.90;;;;;;5053478;28;20461;-55
2023/01/14 04:43:59;;;;;;;5.40;2.50;;;5.70;99.90;;;;;;5053159;28;20503;-55
2023/01/14 04:46:26;;;;;;;2.97;2.17;;;5.70;99.90;;;;;;5053351;28;20528;-55
2023/01/14 04:48:53;;;;;;;4.53;2.30;;;5.70;99.90;;;;;;5053097;28;20936;-55
2023/01/14 04:51:22;;;;;;;7.70;2.40;;;5.70;99.90;;;;;;5053161;28;20568;-55
2023/01/14 04:53:49;;;;;;;2.10;1.90;;;5.70;99.90;;;;;;5053379;28;20449;-55
2023/01/14 04:56:16;;;;;;;3.13;1.80;;;5.70;99.90;;;;;;5053211;28;20483;-55
2023/01/14 04:58:43;;;;;;;3.20;2.20;;;5.60;99.90;;;;;;5053431;28;20496;-55
2023/01/14 05:01:11;;;;;;;7.50;2.67;;;5.60;99.90;;;;;;5052904;28;20485;-55
2023/01/14 05:03:38;;;;;;;3.53;1.77;;;5.50;99.90;;;;;;5053249;28;20540;-55
2023/01/14 05:06:06;;;;;;;4.43;2.37;;;5.60;99.90;;;;;;5053275;28;20445;-55
2023/01/14 05:08:34;;;;;;;3.87;2.30;;;5.60;99.90;;;;;;5053194;28;20849;-55
2023/01/14 05:11:01;;;;;;;4.73;2.17;;;5.60;99.90;;;;;;5052788;28;20544;-55
2023/01/14 05:13:29;;;;;;;3.07;2.60;;;5.70;99.90;;;;;;5052932;28;20425;-54
2023/01/14 05:15:59;;;;;;;3.93;1.93;;;5.60;99.90;;;;;;5052906;28;20453;-55
2023/01/14 05:18:26;;;;;;;6.10;2.63;;;5.60;99.90;;;;;;5055087;28;20900;-55
2023/01/14 05:20:54;;;;;;;9.13;2.53;;;5.60;99.90;;;;;;5056941;28;20463;-55
2023/01/14 05:23:21;;;;;;;2.40;2.10;;;5.60;99.90;;;;;;5056679;28;20471;-55
2023/01/14 05:25:50;;;;;;;3.70;2.37;;;5.50;99.90;;;;;;5056730;28;20430;-55
2023/01/14 05:28:19;;;;;;;2.73;2.20;;;5.50;99.90;;;;;;5056771;28;20461;-54
2023/01/14 05:30:47;;;;;;;8.83;2.20;;;5.60;99.90;;;;;;5056391;28;20979;-55
2023/01/14 05:33:15;;;;;;;8.60;2.50;;;5.60;99.90;;;;;;5056348;28;20429;-55
2023/01/14 05:35:42;;;;;;;7.00;2.30;;;5.60;99.90;;;;;;5056714;28;20448;-55
2023/01/14 05:38:10;;;;;;;4.47;2.10;;;5.60;99.90;;;;;;5056224;28;20453;-55
2023/01/14 05:40:38;;;;;;;2.73;2.10;;;5.70;99.90;;;;;;5056216;28;20476;-55
2023/01/14 05:45:51;;;;;;;4.70;2.60;;;5.60;99.90;;;;;;5056327;28;20409;-55
2023/01/14 05:48:20;;;;;;;2.90;2.60;;;5.60;99.90;;;;;;5056171;28;20990;-55
2023/01/14 05:50:51;;;;;;;4.87;2.27;;;5.60;99.90;;;;;;5055902;28;20991;-55
2023/01/14 05:53:18;;;;;;;2.83;2.30;;;5.50;99.90;;;;;;5056103;28;20960;-55
2023/01/14 05:55:46;;;;;;;3.73;2.07;;;5.50;99.90;;;;;;5055842;28;20445;-55
2023/01/14 05:58:15;;;;;;;6.77;2.70;;;5.50;99.90;;;;;;5055894;28;20456;-55
2023/01/14 06:06:22;;;;;;;5.20;2.53;;;5.50;99.90;;;;;;5055953;28;20455;-55
2023/01/14 06:08:51;;;;;;;4.47;2.70;;;5.50;99.90;;;;;;5055666;28;20430;-55
2023/01/14 06:11:19;;;;;;;6.23;2.50;;;5.50;99.90;;;;;;5055952;28;20495;-55
2023/01/14 06:13:48;;;;;;;4.90;3.00;;;5.50;99.90;;;;;;5056025;28;20449;-55
2023/01/14 06:16:16;;;;;;;2.20;2.00;;;5.50;99.90;;;;;;5055651;28;20453;-55
2023/01/14 06:18:44;;;;;;;5.53;3.27;;;5.50;99.90;;;;;;5055605;28;20434;-55
2023/01/14 06:21:12;;;;;;;13.10;2.73;;;5.40;99.90;;;;;;5055820;28;20468;-55
2023/01/14 06:23:40;;;;;;;4.23;2.30;;;5.40;99.90;;;;;;5055682;28;20451;-55
2023/01/14 06:26:10;;;;;;;5.07;2.00;;;5.40;99.90;;;;;;5055455;28;20540;-55
2023/01/14 06:28:37;;;;;;;8.17;2.80;;;5.40;99.90;;;;;;5055264;28;20430;-55
2023/01/14 06:31:10;;;;;;;5.00;2.37;;;5.40;99.90;;;;;;5055690;28;20833;-56
2023/01/14 06:33:38;;;;;;;4.93;2.37;;;5.40;99.90;;;;;;5055432;28;20433;-55
2023/01/14 06:36:06;;;;;;;5.23;2.00;;;5.30;99.90;;;;;;5055572;28;20532;-55
2023/01/14 06:38:33;;;;;;;3.10;2.00;;;5.30;99.90;;;;;;5055464;28;20528;-55
2023/01/14 06:41:01;;;;;;;4.40;2.17;;;5.40;99.90;;;;;;5055132;28;21046;-55
2023/01/14 06:43:28;;;;;;;5.80;2.13;;;5.50;99.90;;;;;;5055064;28;20951;-55
2023/01/14 06:45:56;;;;;;;4.20;2.47;;;5.50;99.90;;;;;;5055072;28;20992;-55
2023/01/14 06:48:26;;;;;;;6.10;2.60;;;5.50;99.90;;;;;;5055269;28;20445;-55
2023/01/14 06:50:54;;;;;;;6.33;2.27;;;5.60;99.90;;;;;;5055423;28;20948;-55
2023/01/14 06:53:21;;;;;;;7.43;3.90;;;5.60;99.90;;;;;;5054981;28;20434;-56
2023/01/14 06:55:49;;;;;;;4.43;2.40;;;5.60;99.90;;;;;;5054870;28;20456;-55
2023/01/14 06:58:16;;;;;;;4.57;2.20;;;5.70;99.90;;;;;;5054739;28;20456;-55
2023/01/14 07:00:43;;;;;;;3.43;1.73;;;5.70;99.90;;;;;;5053161;28;20509;-55
2023/01/14 07:03:11;;;;;;;4.70;2.43;;;5.80;99.90;;;;;;5054657;28;20459;-55
2023/01/14 07:05:39;;;;;;;4.70;2.90;;;5.80;99.90;;;;;;5054683;28;20441;-55
2023/01/14 07:08:07;;;;;;;5.63;4.10;;;5.80;99.90;;;;;;5054526;28;20944;-55
2023/01/14 07:10:34;;;;;;;6.03;3.10;;;5.90;99.90;;;;;;5054569;28;20475;-56
2023/01/14 07:13:01;;;;;;;4.80;3.13;;;5.90;99.90;;;;;;5054623;28;20485;-55
2023/01/14 07:15:28;;;;;;;3.47;2.17;;;5.90;99.90;;;;;;5054786;28;20446;-55
2023/01/14 07:17:55;;;;;;;8.93;2.50;;;5.90;99.90;;;;;;5054638;28;20478;-55
2023/01/14 07:20:22;;;;;;;6.50;2.47;;;6.00;99.90;;;;;;5054589;28;20465;-55
2023/01/14 07:22:51;;;;;;;3.83;2.60;;;6.00;99.90;;;;;;5054295;28;20446;-55
2023/01/14 07:25:19;;;;;;;7.90;3.13;;;6.00;99.90;;;;;;5054557;28;20445;-54
2023/01/14 07:27:46;;;;;;;4.97;2.67;;;6.00;99.90;;;;;;5054634;28;20451;-55
2023/01/14 07:30:14;;;;;;;5.17;2.90;;;6.00;99.90;;;;;;5054128;28;20864;-55
2023/01/14 07:32:41;;;;;;;3.63;2.60;;;6.00;99.90;;;;;;5054049;28;20477;-55
2023/01/14 07:35:09;;;;;;;4.23;2.80;;;6.00;99.90;;;;;;5054327;28;20459;-54
2023/01/14 07:37:36;;;;;;;7.53;2.70;;;6.00;99.90;;;;;;5054261;28;20457;-55
2023/01/14 07:40:06;;;;;;;3.17;2.37;;;6.10;99.90;;;;;;5053652;28;20556;-55
2023/01/14 07:42:33;;;;;;;5.30;2.40;;;6.10;99.90;;;;;;5054255;28;20485;-55
2023/01/14 07:45:00;;;;;;;8.57;4.23;;;6.10;99.90;;;;;;5053817;28;20948;-55
2023/01/14 07:47:28;;;;;;;6.63;2.60;;;6.20;99.90;;;;;;5054189;28;20488;-55
2023/01/14 07:49:55;;;;;;;5.30;2.50;;;6.20;99.90;;;;;;5053728;28;20976;-55
2023/01/14 07:52:22;;;;;;;3.70;2.53;;;6.20;99.90;;;;;;5053927;28;20568;-56
2023/01/14 07:54:49;;;;;;;7.70;2.77;;;6.20;99.90;;;;;;5053612;28;20453;-56
2023/01/14 07:57:18;;;;;;;6.00;5.40;;;6.20;99.90;;;;;;5054088;28;20820;-55
2023/01/14 07:59:45;;;;;;;6.97;2.60;;;6.20;99.90;;;;;;5053810;28;20464;-55
2023/01/14 08:02:13;;;;;;;6.13;2.77;;;6.30;99.90;;;;;;5053565;28;20473;-55
2023/01/14 08:04:40;;;;;;;3.93;2.63;;;6.30;99.90;;;;;;5053777;28;20551;-55
2023/01/14 08:07:08;;;;;;;8.73;2.60;;;6.40;99.90;;;;;;5053604;28;20961;-55
2023/01/14 08:09:35;;;;;;;4.47;2.33;;;6.50;99.90;;;;;;5053712;28;20449;-55
2023/01/14 08:12:03;;;;;;;4.57;2.67;;;6.50;99.90;;;;;;5053366;28;20488;-55
2023/01/14 08:14:31;;;;;;;6.53;2.47;;;6.50;99.90;;;;;;5053608;28;20449;-55
2023/01/14 08:17:02;;;;;;;4.80;2.60;;;6.60;99.90;;;;;;5053402;28;20450;-56
2023/01/14 08:19:30;;;;;;;4.53;2.70;;;6.60;99.90;;;;;;5053640;28;20433;-56
2023/01/14 08:21:57;;;;;;;3.23;2.93;;;6.70;99.90;;;;;;5052610;28;20449;-55
2023/01/14 08:24:24;;;;;;;8.13;3.17;;;6.80;99.90;;;;;;5051905;28;20471;-58
2023/01/14 08:26:51;;;;;;;6.43;2.73;;;6.80;99.90;;;;;;5052739;28;20532;-55
2023/01/14 08:29:19;;;;;;;12.40;2.80;;;7.00;99.90;;;;;;5052130;28;20459;-59
2023/01/14 08:31:51;;;;;;;5.70;3.10;;;7.10;99.90;;;;;;5041860;28;20616;-63
2023/01/14 08:34:18;;;;;;;3.53;2.67;;;7.10;99.90;;;;;;5047922;28;20457;-52
2023/01/14 08:36:45;;;;;;;9.57;3.13;;;7.20;99.90;;;;;;5047221;28;20453;-55
2023/01/14 08:39:12;;;;;;;4.80;2.27;;;7.10;99.90;;;;;;5041483;28;20441;-53
2023/01/14 08:41:40;;;;;;;5.40;2.70;;;7.10;99.90;;;;;;5048602;28;20566;-52
2023/01/14 08:44:07;;;;;;;4.40;3.20;;;7.10;99.90;;;;;;5046365;28;20454;-54
2023/01/14 08:46:34;;;;;;;2.93;2.73;;;7.20;99.90;;;;;;5049012;28;20917;-56
2023/01/14 08:49:03;;;;;;;5.37;2.60;;;7.20;99.90;;;;;;5050903;28;20472;-55
2023/01/14 08:51:31;;;;;;;12.00;3.27;;;7.20;99.90;;;;;;5045115;28;20492;-57
2023/01/14 08:54:00;;;;;;;8.57;4.23;;;7.30;99.90;;;;;;5059883;28;20571;-61
2023/01/14 08:56:28;;;;;;;3.70;2.30;;;7.30;99.90;;;;;;5050954;28;20926;-61
2023/01/14 08:58:56;;;;;;;8.70;3.00;;;7.30;99.90;;;;;;5050234;28;20966;-57
2023/01/14 09:01:25;;;;;;;9.23;2.60;;;7.40;99.90;;;;;;5045659;28;20496;-59
2023/01/14 09:03:53;;;;;;;4.67;2.67;;;7.50;99.90;;;;;;5047760;28;21012;-58
2023/01/14 09:06:21;;;;;;;3.87;2.47;;;7.50;99.90;;;;;;5059986;28;20497;-55
2023/01/14 09:17:14;;;;;;;6.20;2.90;;;7.70;99.90;;;;;;5054389;28;20867;-57
2023/01/14 09:19:57;;;;;;;9.97;2.80;;;7.70;99.90;;;;;;5053633;28;20469;-56
2023/01/14 09:22:27;;;;;;;5.67;3.10;;;7.70;99.90;;;;;;5059931;28;20510;-57
2023/01/14 09:24:55;;;;;;;4.57;2.77;;;7.70;99.90;;;;;;5052165;28;21214;-53
2023/01/14 09:27:23;;;;;;;4.00;2.37;;;7.80;99.90;;;;;;5060029;28;20987;-52
2023/01/14 09:29:50;;;;;;;6.70;2.53;;;7.80;99.90;;;;;;5056124;28;20460;-58
2023/01/14 09:32:19;;;;;;;9.33;3.13;;;7.90;99.90;;;;;;5056500;28;20478;-57
2023/01/14 09:34:49;;;;;;;2.80;1.97;;;7.90;99.90;;;;;;5050252;28;20460;-55
2023/01/14 09:37:19;;;;;;;9.83;3.10;;;7.90;99.90;;;;;;5056454;28;20552;-58
2023/01/14 09:39:47;;;;;;;6.60;3.50;;;8.00;99.90;;;;;;5053226;28;20954;-55
2023/01/14 09:42:18;;;;;;;5.33;3.93;;;8.00;99.90;;;;;;5052086;28;20955;-58
2023/01/14 09:44:47;;;;;;;4.87;2.90;;;8.10;99.90;;;;;;5050071;28;20465;-55
2023/01/14 09:47:17;;;;;;;6.10;3.70;;;8.10;99.90;;;;;;5057796;28;20449;-55
2023/01/14 09:49:46;;;;;;;7.53;2.90;;;8.10;99.90;;;;;;5056305;28;20473;-57
2023/01/14 09:52:39;;;;;;;2.93;2.30;;;8.20;99.90;;;;;;5056529;28;20580;-58
2023/01/14 09:55:15;;;;;;;6.40;1.90;;;8.30;99.90;;;;;;5056851;28;20460;-54
2023/01/14 09:57:51;;;;;;;5.93;2.57;;;8.30;99.90;;;;;;5053779;28;21016;-53
2023/01/14 10:00:30;;;;;;;14.57;3.00;;;8.40;99.90;;;;;;5053684;28;20946;-51
2023/01/14 10:03:11;;;;;;;6.97;2.53;;;8.50;99.90;;;;;;5049960;28;20879;-54
2023/01/14 10:05:40;;;;;;;4.37;2.30;;;8.60;99.90;;;;;;5049116;28;20467;-52
2023/01/14 10:08:14;;;;;;;3.70;2.20;;;8.70;99.90;;;;;;5053678;28;20456;-55
2023/01/14 10:10:45;;;;;;;3.00;2.10;;;8.80;99.90;;;;;;5059029;28;20463;-55
2023/01/14 10:13:19;;;;;;;5.37;2.13;;;8.80;99.90;;;;;;5054503;28;20476;-52
2023/01/14 10:15:51;;;;;;;3.70;2.20;;;8.80;99.90;;;;;;5051218;28;20477;-51
2023/01/14 10:18:23;;;;;;;3.73;2.07;;;8.70;99.90;;;;;;5057515;28;20467;-55
2023/01/14 10:20:54;;;;;;;3.40;1.90;;;8.70;99.90;;;;;;5056678;28;20468;-57
2023/01/14 10:23:29;;;;;;;3.97;2.57;;;8.70;99.90;;;;;;5052272;28;20471;-56
2023/01/14 10:25:58;;;;;;;4.83;2.17;;;8.70;99.90;;;;;;5058538;28;20467;-54
2023/01/14 10:28:28;;;;;;;6.93;2.63;;;8.80;99.90;;;;;;5062463;28;20449;-54
2023/01/14 10:30:56;;;;;;;3.83;2.03;;;8.90;99.90;;;;;;5055606;28;20483;-52
2023/01/14 10:33:24;;;;;;;3.83;2.37;;;8.90;99.90;;;;;;5051580;28;20481;-55
2023/01/14 10:35:56;;;;;;;3.90;2.27;;;8.90;99.90;;;;;;5050957;28;20877;-53
2023/01/14 10:38:25;;;;;;;6.93;2.30;;;8.90;99.90;;;;;;5054463;28;20460;-57
2023/01/14 10:40:56;;;;;;;4.37;2.00;;;8.90;99.90;;;;;;5054758;28;20480;-55
2023/01/14 10:43:30;;;;;;;3.77;2.10;;;8.90;99.90;;;;;;5057670;28;20472;-51
2023/01/14 10:45:58;;;;;;;3.03;1.87;;;9.00;99.90;;;;;;5056543;28;20452;-55
2023/01/14 10:48:26;;;;;;;4.97;1.90;;;9.10;99.90;;;;;;5058544;28;20449;-53
2023/01/14 10:50:53;;;;;;;4.30;2.00;;;9.20;99.90;;;;;;5047367;28;20508;-55
2023/01/14 10:53:23;;;;;;;6.83;2.53;;;9.30;99.90;;;;;;5168495;22;20501;-54
2023/01/14 10:55:58;;;;;;;6.30;2.83;;;9.30;99.90;;;;;;5076505;28;20789;-56
2023/01/14 10:58:38;;;;;;;3.67;1.70;;;9.30;99.90;;;;;;5077539;28;20454;-53
2023/01/14 11:01:07;;;;;;;3.90;2.30;;;9.30;99.90;;;;;;5078711;28;20880;-52
2023/01/14 11:03:43;;;;;;;3.60;2.07;;;9.30;99.90;;;;;;5064182;28;20488;-53
2023/01/14 11:06:14;;;;;;;3.17;2.20;;;9.30;99.90;;;;;;5055655;28;20452;-50
2023/01/14 11:08:54;;;;;;;3.73;2.00;;;9.30;99.90;;;;;;5061716;28;20454;-52
2023/01/14 11:11:26;;;;;;;2.87;2.00;;;9.20;99.90;;;;;;5063269;28;20471;-54
2023/01/14 11:13:55;;;;;;;3.63;1.70;;;9.30;99.90;;;;;;5049643;28;20494;-54
2023/01/14 11:16:33;;;;;;;1.60;1.50;;;9.30;99.90;;;;;;5059160;28;20451;-46
2023/01/14 11:19:03;;;;;;;1.87;1.77;;;9.30;99.90;;;;;;5058527;28;20456;-51
2023/01/14 11:21:37;;;;;;;5.53;2.20;;;9.40;99.90;;;;;;5058220;28;20464;-54
2023/01/14 11:24:25;;;;;;;4.70;1.80;;;9.30;99.90;;;;;;5055551;28;20476;-52
2023/01/14 11:27:01;;;;;;;5.27;1.83;;;9.30;99.90;;;;;;5064436;28;20454;-54
2023/01/14 11:29:31;;;;;;;2.30;2.10;;;9.40;99.90;;;;;;5056622;28;20455;-51
2023/01/14 11:32:07;;;;;;;2.50;1.70;;;9.40;99.90;;;;;;5054068;28;20496;-48
2023/01/14 11:34:37;;;;;;;2.23;1.63;;;9.40;99.90;;;;;;5053668;28;20468;-48
2023/01/14 11:37:06;;;;;;;3.20;2.10;;;9.50;99.90;;;;;;5058998;28;20826;-50
2023/01/14 11:39:36;;;;;;;2.10;1.53;;;9.50;99.90;;;;;;5057589;28;20539;-49
2023/01/14 11:42:21;;;;;;;2.43;1.80;;;9.50;99.90;;;;;;5054120;28;20460;-50
2023/01/14 11:44:57;;;;;;;5.93;1.97;;;9.40;99.90;;;;;;5060292;28;20472;-50
2023/01/14 11:47:25;;;;;;;3.07;1.63;;;9.50;99.90;;;;;;5058948;28;20513;-58
2023/01/14 11:50:11;;;;;;;1.93;1.50;;;9.50;99.90;;;;;;5055453;28;20964;-56
2023/01/14 11:52:38;;;;;;;3.17;1.63;;;9.50;99.90;;;;;;5057950;28;20482;-57
2023/01/14 11:55:12;;;;;;;1.83;1.50;;;9.50;99.90;;;;;;5064998;28;20433;-56
2023/01/14 11:57:40;;;;;;;1.70;1.50;;;9.50;99.90;;;;;;5060673;28;20486;-55
2023/01/14 12:00:11;;;;;;;5.47;1.80;;;9.60;99.90;;;;;;5060452;28;20547;-56
2023/01/14 12:02:41;;;;;;;1.60;1.50;;;9.60;99.90;;;;;;5058726;28;20475;-53
2023/01/14 12:05:14;;;;;;;4.60;2.03;;;9.60;99.90;;;;;;5052382;28;20464;-54
2023/01/14 12:07:45;;;;;;;3.57;2.27;;;9.60;99.90;;;;;;5053604;28;20460;-55
2023/01/14 12:10:20;;;;;;;3.30;1.73;;;9.60;99.90;;;;;;5058258;28;20463;-55
2023/01/14 12:18:37;;;;;;;2.93;1.93;;;9.70;99.90;;;;;;5064280;28;20423;-55
2023/01/14 12:21:06;;;;;;;1.70;1.60;;;9.70;99.90;;;;;;5058882;28;20453;-56
2023/01/14 12:23:39;;;;;;;5.27;2.20;;;9.80;99.90;;;;;;5062323;28;20559;-54
2023/01/14 12:26:17;;;;;;;1.93;1.70;;;9.70;99.90;;;;;;5057694;28;20475;-53
2023/01/14 12:28:48;;;;;;;6.60;2.73;;;9.70;99.90;;;;;;5067821;28;20489;-53
2023/01/14 12:31:22;;;;;;;3.23;2.07;;;9.70;99.90;;;;;;5065053;28;20946;-54
2023/01/14 12:33:54;;;;;;;2.20;2.03;;;9.70;99.90;;;;;;5068216;28;20998;-56
2023/01/14 12:36:24;;;;;;;2.30;1.90;;;9.70;99.90;;;;;;5063452;28;20551;-54
2023/01/14 12:47:28;;;;;;;4.13;1.70;;;9.60;99.90;;;;;;5060729;28;20463;-52
2023/01/14 12:49:56;;;;;;;2.10;1.90;;;9.60;99.90;;;;;;5068297;28;20466;-51
2023/01/14 12:52:31;;;;;;;4.90;2.17;;;9.70;99.90;;;;;;5068602;28;20451;-51
2023/01/14 12:54:59;;;;;;;4.30;1.90;;;9.70;99.90;;;;;;5066868;28;20487;-52
2023/01/14 12:57:28;;;;;;;2.60;2.10;;;9.70;99.90;;;;;;5068029;28;20510;-56
2023/01/14 13:00:00;;;;;;;1.70;1.60;;;9.80;99.90;;;;;;5066488;28;20439;-53
2023/01/14 13:02:34;;;;;;;3.03;2.40;;;9.70;99.90;;;;;;5062169;28;20456;-53
2023/01/14 13:05:06;;;;;;;4.43;2.00;;;9.80;99.90;;;;;;5068646;28;20519;-52
2023/01/14 13:07:37;;;;;;;2.50;2.30;;;9.80;99.90;;;;;;5066926;28;20463;-54
2023/01/14 13:10:07;;;;;;;2.10;1.90;;;9.80;99.90;;;;;;5055167;28;20457;-50
2023/01/14 13:12:36;;;;;;;2.33;1.80;;;9.80;99.90;;;;;;5061857;28;20459;-55
2023/01/14 13:15:07;;;;;;;2.23;1.70;;;9.80;99.90;;;;;;5064238;28;20467;-55
2023/01/14 13:17:37;;;;;;;2.70;1.93;;;9.80;99.90;;;;;;5070492;28;20926;-55
2023/01/14 13:20:27;;;;;;;2.27;1.80;;;9.80;99.90;;;;;;5070197;28;20562;-55
2023/01/14 13:22:54;;;;;;;7.03;3.70;;;9.80;99.90;;;;;;5061324;28;20487;-56
2023/01/14 13:25:43;;;;;;;3.10;1.80;;;9.90;99.90;;;;;;5069321;28;20447;-55
2023/01/14 13:28:31;;;;;;;6.53;2.10;;;9.80;99.90;;;;;;5066685;28;20458;-55
2023/01/14 13:31:31;;;;;;;3.10;2.03;;;9.90;99.90;;;;;;5066543;28;20428;-54
2023/01/14 13:34:46;;;;;;;3.77;2.00;;;9.90;99.90;;;;;;5065006;28;20491;-55
2023/01/14 13:37:30;;;;;;;2.63;1.63;;;9.90;99.90;;;;;;5069683;28;20447;-56
2023/01/14 13:39:57;;;;;;;3.10;2.37;;;9.90;99.90;;;;;;5068981;28;20519;-55
2023/01/14 13:42:31;;;;;;;2.23;1.97;;;9.90;99.90;;;;;;5068643;28;20820;-53
2023/01/14 13:45:00;;;;;;;2.47;1.97;;;9.90;99.90;;;;;;5073066;28;20494;-54
2023/01/14 13:47:32;;;;;;;1.70;1.60;;;9.90;99.90;;;;;;5066579;28;20460;-54
2023/01/14 13:50:03;;;;;;;6.50;2.23;;;9.90;99.90;;;;;;5068565;28;20459;-55